Bookmark and Share
Track history (hours):
 

Cochise

More information available from US FCC via Universal Licensing System and Coast Guard Vessel Documentation Center.

Last reported at 2014-Apr-24 08:31 UTC. Time now 2014-Apr-24 09:06 UTC.
Position N 37°55' W 122°22'.

Length 32 m; draft 4.8 m.

Type: Towing. MMSI: 367304990.

NotesDate/timePositionNaut miles runAvg speedWind from/ knotsBaromVisibWave heightAir tempDewpointWater temp
2014-Apr-24 08:31N 37°55' W 122°22'0 0.0
2014-Apr-24 07:31N 37°55' W 122°22'0 0.0
2014-Apr-24 06:31N 37°55' W 122°22'0 0.0
2014-Apr-24 05:28N 37°55' W 122°22'0 0.0
2014-Apr-24 04:31N 37°55' W 122°22'0 0.0
2014-Apr-24 03:31N 37°55' W 122°22'0 0.0
2014-Apr-24 02:31N 37°55' W 122°22'0 0.0
2014-Apr-24 01:31N 37°55' W 122°22'0 0.0
2014-Apr-24 00:31N 37°55' W 122°22'0 0.0
2014-Apr-23 23:31N 37°55' W 122°22'0 0.0
2014-Apr-23 22:31N 37°55' W 122°22'0 0.0
2014-Apr-23 21:31N 37°55' W 122°22'0 0.0
2014-Apr-23 20:31N 37°55' W 122°22'0 0.0
2014-Apr-23 19:31N 37°55' W 122°22'0 0.0
2014-Apr-23 18:31N 37°55' W 122°22'0 0.0
2014-Apr-23 17:31N 37°55' W 122°22'0 0.0
2014-Apr-23 16:31N 37°55' W 122°22'0 0.0
2014-Apr-23 15:31N 37°55' W 122°22'0 0.0
2014-Apr-23 14:31N 37°55' W 122°22'0 0.0
2014-Apr-23 13:31N 37°55' W 122°22'0 0.0
2014-Apr-23 12:25N 37°55' W 122°22'0 0.0
2014-Apr-23 11:31N 37°55' W 122°22'0 0.0
2014-Apr-23 10:31N 37°55' W 122°22'0 0.0
2014-Apr-23 09:31N 37°55' W 122°22'0 0.0
2014-Apr-23 08:31N 37°55' W 122°22'0 0.0
2014-Apr-23 07:31N 37°55' W 122°22'0 0.0
2014-Apr-23 06:31N 37°55' W 122°22'0 0.0
2014-Apr-23 05:31N 37°55' W 122°22'0 0.0
2014-Apr-23 04:31N 37°55' W 122°22'0 0.0
2014-Apr-23 03:31N 37°55' W 122°22'0 0.0
2014-Apr-23 02:31N 37°55' W 122°22'0 0.0
2014-Apr-23 01:31N 37°55' W 122°22'0 0.0
2014-Apr-23 00:31N 37°55' W 122°22'0 0.0
2014-Apr-22 23:31N 37°55' W 122°22'0 0.0
2014-Apr-22 22:31N 37°55' W 122°22'0 0.0
2014-Apr-22 21:31N 37°55' W 122°22'0 0.0
2014-Apr-22 20:28N 37°55' W 122°22'0 0.0
2014-Apr-22 19:25N 37°55' W 122°22'0 0.0
2014-Apr-22 18:31N 37°55' W 122°22'0 0.0
2014-Apr-22 17:31N 37°55' W 122°22'0 0.0
2014-Apr-22 16:31N 37°55' W 122°22'0 0.0
2014-Apr-22 15:31N 37°55' W 122°22'0 0.0
2014-Apr-22 14:31N 37°55' W 122°22'0 0.0
2014-Apr-22 13:31N 37°55' W 122°22'0 0.0
2014-Apr-22 12:31N 37°55' W 122°22'0 0.0
2014-Apr-22 11:31N 37°55' W 122°22'0 0.0
2014-Apr-22 10:25N 37°55' W 122°22'0 0.0
2014-Apr-22 09:31N 37°55' W 122°22'0 0.0
2014-Apr-22 08:31N 37°55' W 122°22'0 0.0
2014-Apr-22 07:34N 37°55' W 122°22'3 2.5
2014-Apr-22 06:33N 37°55' W 122°25'0 0.0
2014-Apr-22 05:34N 37°55' W 122°25'0 0.3
2014-Apr-22 04:32N 37°55' W 122°25'0 0.0
2014-Apr-22 03:32N 37°55' W 122°25'0 0.0
2014-Apr-22 02:32N 37°55' W 122°25'0 0.0
2014-Apr-22 01:32N 37°55' W 122°25'0 0.0
2014-Apr-22 00:32N 37°55' W 122°25'0 0.0
2014-Apr-21 23:23N 37°55' W 122°25'0 0.0
2014-Apr-21 22:32N 37°55' W 122°25'0 0.0
2014-Apr-21 21:29N 37°55' W 122°25'0 0.0
2014-Apr-21 20:29N 37°55' W 122°25'0 0.0
2014-Apr-21 19:29N 37°55' W 122°25'0 0.0
2014-Apr-21 18:32N 37°55' W 122°25'0 0.0
2014-Apr-21 17:32N 37°55' W 122°25'0 0.0
2014-Apr-21 16:29N 37°55' W 122°25'0 0.3
2014-Apr-21 15:32N 37°55' W 122°25'1 1.4
2014-Apr-21 14:33N 37°54' W 122°25'8 7.8
2014-Apr-21 13:34N 37°46' W 122°23'0 0.0
2014-Apr-21 12:34N 37°46' W 122°23'0 0.0
2014-Apr-21 11:34N 37°46' W 122°23'0 0.0
2014-Apr-21 10:33N 37°46' W 122°23'0 0.0
2014-Apr-21 09:33N 37°46' W 122°23'0 0.0
2014-Apr-21 08:33N 37°46' W 122°23'0 0.0
2014-Apr-21 07:33N 37°46' W 122°23'0 0.0
2014-Apr-21 06:33N 37°46' W 122°23'0 0.0
2014-Apr-21 05:33N 37°46' W 122°23'0 0.0
2014-Apr-21 04:33N 37°46' W 122°23'0 0.0
2014-Apr-21 03:33N 37°46' W 122°23'0 0.0
2014-Apr-21 02:33N 37°46' W 122°23'0 0.0
2014-Apr-21 01:33N 37°46' W 122°23'0 0.0
2014-Apr-21 00:33N 37°46' W 122°23'0 0.0
2014-Apr-20 23:33N 37°46' W 122°23'0 0.0
2014-Apr-20 22:33N 37°46' W 122°23'0 0.0
2014-Apr-20 21:33N 37°46' W 122°23'0 0.0
2014-Apr-20 20:33N 37°46' W 122°23'0 0.0
2014-Apr-20 19:33N 37°46' W 122°23'0 0.0
2014-Apr-20 18:33N 37°46' W 122°23'0 0.0
2014-Apr-20 17:33N 37°46' W 122°23'0 0.0
2014-Apr-20 16:33N 37°46' W 122°23'0 0.0
2014-Apr-20 15:33N 37°46' W 122°23'0 0.0
2014-Apr-20 14:33N 37°46' W 122°23'0 0.0
2014-Apr-20 13:33N 37°46' W 122°23'0 0.0
2014-Apr-20 12:34N 37°46' W 122°23'0 0.0
2014-Apr-20 11:33N 37°46' W 122°23'0 0.0
2014-Apr-20 10:34N 37°46' W 122°23'0 0.0
2014-Apr-20 09:33N 37°46' W 122°23'0 0.0
2014-Apr-20 08:33N 37°46' W 122°23'0 0.0
2014-Apr-20 07:33N 37°46' W 122°23'0 0.0
2014-Apr-20 06:33N 37°46' W 122°23'0 0.0
2014-Apr-20 05:33N 37°46' W 122°23'0 0.0
2014-Apr-20 04:33N 37°46' W 122°23'0 0.0
2014-Apr-20 03:33N 37°46' W 122°23'0 0.0
2014-Apr-20 02:33N 37°46' W 122°23'0 0.0
2014-Apr-20 01:33N 37°46' W 122°23'0 0.0
2014-Apr-20 00:33N 37°46' W 122°23'0 0.0
2014-Apr-19 23:33N 37°46' W 122°23'0 0.0
2014-Apr-19 22:33N 37°46' W 122°23'0 0.0
2014-Apr-19 21:33N 37°46' W 122°23'0 0.0
2014-Apr-19 20:33N 37°46' W 122°23'0 0.0
2014-Apr-19 19:33N 37°46' W 122°23'0 0.0
2014-Apr-19 18:33N 37°46' W 122°23'0 0.0
2014-Apr-19 17:33N 37°46' W 122°23'0 0.0
2014-Apr-19 16:33N 37°46' W 122°23'0 0.0
2014-Apr-19 15:33N 37°46' W 122°23'0 0.0
2014-Apr-19 14:33N 37°46' W 122°23'0 0.0
2014-Apr-19 13:33N 37°46' W 122°23'0 0.0
2014-Apr-19 12:33N 37°46' W 122°23'0 0.0
2014-Apr-19 11:33N 37°46' W 122°23'0 0.0
2014-Apr-19 10:33N 37°46' W 122°23'0 0.0
2014-Apr-19 09:33N 37°46' W 122°23'0 0.0
2014-Apr-19 08:33N 37°46' W 122°23'0 0.0
2014-Apr-19 07:33N 37°46' W 122°23'0 0.0
2014-Apr-19 06:33N 37°46' W 122°23'0 0.0
2014-Apr-19 05:33N 37°46' W 122°23'0 0.0
2014-Apr-19 04:33N 37°46' W 122°23'0 0.0
2014-Apr-19 03:33N 37°46' W 122°23'0 0.0
2014-Apr-19 02:33N 37°46' W 122°23'0 0.0
2014-Apr-19 01:34N 37°46' W 122°23'5 4.7
2014-Apr-19 00:34N 37°51' W 122°24'4 4.2
2014-Apr-18 23:33N 37°55' W 122°22'0 0.0
2014-Apr-18 22:33N 37°55' W 122°22'0 0.0
2014-Apr-18 21:34N 37°55' W 122°22'0 0.0
2014-Apr-18 20:34N 37°55' W 122°22'0 0.0
2014-Apr-18 19:34N 37°55' W 122°22'0 0.0
2014-Apr-18 18:34N 37°55' W 122°22'0 0.0
2014-Apr-18 17:33N 37°55' W 122°22'0 0.3
2014-Apr-18 16:33N 37°55' W 122°22'0 0.0
2014-Apr-18 15:33N 37°55' W 122°22'0 0.0
2014-Apr-18 14:33N 37°55' W 122°22'7 6.8
2014-Apr-18 13:34N 37°48' W 122°23'2 1.6
2014-Apr-18 12:34N 37°46' W 122°23'0 0.0
2014-Apr-18 11:34N 37°46' W 122°23'0 0.0
2014-Apr-18 10:33N 37°46' W 122°23'0 0.0
2014-Apr-18 09:33N 37°46' W 122°23'0 0.0
2014-Apr-18 08:33N 37°46' W 122°23'0 0.0
2014-Apr-18 07:33N 37°46' W 122°23'0 0.0
2014-Apr-18 06:33N 37°46' W 122°23'0 0.0
2014-Apr-18 05:33N 37°46' W 122°23'0 0.0
2014-Apr-18 04:33N 37°46' W 122°23'0 0.0
2014-Apr-18 03:33N 37°46' W 122°23'0 0.0
2014-Apr-18 02:33N 37°46' W 122°23'0 0.0
2014-Apr-18 01:33N 37°46' W 122°23'0 0.0
2014-Apr-18 00:33N 37°46' W 122°23'0 0.0
2014-Apr-17 23:33N 37°46' W 122°23'0 0.0
2014-Apr-17 22:33N 37°46' W 122°23'0 0.0
2014-Apr-17 21:33N 37°46' W 122°23'0 0.0
2014-Apr-17 20:33N 37°46' W 122°23'0 0.0
2014-Apr-17 19:33N 37°46' W 122°23'0 0.0
2014-Apr-17 18:33N 37°46' W 122°23'0 0.3
2014-Apr-17 17:33N 37°46' W 122°23'3 3.3
2014-Apr-17 16:33N 37°49' W 122°25'9 9.4
2014-Apr-17 15:33N 37°46' W 122°36'9 9.0
2014-Apr-17 14:33N 37°47' W 122°48'9 9.1
2014-Apr-17 13:33N 37°51' W 122°58'9 9.1
2014-Apr-17 12:33N 37°55' W 123°08'9 8.7
2014-Apr-17 11:33N 38°02' W 123°16'9 9.0
2014-Apr-17 10:33N 38°09' W 123°23'9 8.9
2014-Apr-17 09:33N 38°17' W 123°28'9 9.2
2014-Apr-17 08:33N 38°25' W 123°33'9 9.1
2014-Apr-17 07:33N 38°33' W 123°38'9 9.0
2014-Apr-17 06:33N 38°41' W 123°43'  
2014-Apr-14 09:33N 38°35' W 124°04'  

Dump ship's entire track history

sailing weather and tide predictions

Cochise — WDD8952 — position and weather